sensor_id;sensor_type;location;lat;lon;timestamp;P1;durP1;ratioP1;P2;durP2;ratioP2
39502;SDS011;26970;49.900;10.774;2023-03-19T00:01:25;8.30;;;3.92;;
39502;SDS011;26970;49.900;10.774;2023-03-19T00:03:51;12.25;;;4.13;;
39502;SDS011;26970;49.900;10.774;2023-03-19T00:06:17;7.38;;;4.05;;
39502;SDS011;26970;49.900;10.774;2023-03-19T00:08:43;12.00;;;4.20;;
39502;SDS011;26970;49.900;10.774;2023-03-19T00:11:09;10.75;;;4.18;;
39502;SDS011;26970;49.900;10.774;2023-03-19T00:13:37;7.45;;;3.97;;
39502;SDS011;26970;49.900;10.774;2023-03-19T00:16:04;9.68;;;4.13;;
39502;SDS011;26970;49.900;10.774;2023-03-19T00:18:30;10.00;;;4.30;;
39502;SDS011;26970;49.900;10.774;2023-03-19T00:20:56;9.10;;;4.00;;
39502;SDS011;26970;49.900;10.774;2023-03-19T00:23:22;9.15;;;4.40;;
39502;SDS011;26970;49.900;10.774;2023-03-19T00:25:47;9.38;;;4.07;;
39502;SDS011;26970;49.900;10.774;2023-03-19T00:28:13;10.38;;;4.43;;
39502;SDS011;26970;49.900;10.774;2023-03-19T00:30:39;7.40;;;4.45;;
39502;SDS011;26970;49.900;10.774;2023-03-19T00:33:04;8.30;;;4.30;;
39502;SDS011;26970;49.900;10.774;2023-03-19T00:35:30;7.50;;;4.53;;
39502;SDS011;26970;49.900;10.774;2023-03-19T00:37:56;12.90;;;4.88;;
39502;SDS011;26970;49.900;10.774;2023-03-19T00:40:22;10.32;;;5.25;;
39502;SDS011;26970;49.900;10.774;2023-03-19T00:42:47;11.88;;;5.93;;
39502;SDS011;26970;49.900;10.774;2023-03-19T00:45:13;11.25;;;5.50;;
39502;SDS011;26970;49.900;10.774;2023-03-19T00:47:39;10.80;;;5.72;;
39502;SDS011;26970;49.900;10.774;2023-03-19T00:50:04;8.90;;;5.47;;
39502;SDS011;26970;49.900;10.774;2023-03-19T00:52:31;10.93;;;5.47;;
39502;SDS011;26970;49.900;10.774;2023-03-19T00:54:56;9.35;;;5.40;;
39502;SDS011;26970;49.900;10.774;2023-03-19T00:57:22;11.73;;;6.38;;
39502;SDS011;26970;49.900;10.774;2023-03-19T00:59:47;9.18;;;5.15;;
39502;SDS011;26970;49.900;10.774;2023-03-19T01:02:13;10.13;;;6.60;;
39502;SDS011;26970;49.900;10.774;2023-03-19T01:04:39;9.13;;;5.75;;
39502;SDS011;26970;49.900;10.774;2023-03-19T01:07:05;9.02;;;5.63;;
39502;SDS011;26970;49.900;10.774;2023-03-19T01:09:30;9.65;;;5.97;;
39502;SDS011;26970;49.900;10.774;2023-03-19T01:11:56;14.25;;;6.72;;
39502;SDS011;26970;49.900;10.774;2023-03-19T01:14:22;14.95;;;6.72;;
39502;SDS011;26970;49.900;10.774;2023-03-19T01:16:48;13.68;;;6.28;;
39502;SDS011;26970;49.900;10.774;2023-03-19T01:19:14;10.63;;;6.25;;
39502;SDS011;26970;49.900;10.774;2023-03-19T01:21:40;10.80;;;5.88;;
39502;SDS011;26970;49.900;10.774;2023-03-19T01:24:10;17.95;;;5.63;;
39502;SDS011;26970;49.900;10.774;2023-03-19T01:26:36;10.18;;;5.30;;
39502;SDS011;26970;49.900;10.774;2023-03-19T01:29:02;10.25;;;5.57;;
39502;SDS011;26970;49.900;10.774;2023-03-19T01:31:28;9.32;;;5.70;;
39502;SDS011;26970;49.900;10.774;2023-03-19T01:33:53;10.57;;;5.45;;
39502;SDS011;26970;49.900;10.774;2023-03-19T01:36:19;11.48;;;5.85;;
39502;SDS011;26970;49.900;10.774;2023-03-19T01:38:45;10.68;;;5.70;;
39502;SDS011;26970;49.900;10.774;2023-03-19T01:41:11;9.35;;;5.22;;
39502;SDS011;26970;49.900;10.774;2023-03-19T01:43:36;14.38;;;5.35;;
39502;SDS011;26970;49.900;10.774;2023-03-19T01:46:06;11.45;;;5.88;;
39502;SDS011;26970;49.900;10.774;2023-03-19T01:48:55;9.82;;;5.53;;
39502;SDS011;26970;49.900;10.774;2023-03-19T01:51:25;11.32;;;4.72;;
39502;SDS011;26970;49.900;10.774;2023-03-19T01:53:57;13.95;;;5.00;;
39502;SDS011;26970;49.900;10.774;2023-03-19T01:56:29;11.43;;;4.85;;
39502;SDS011;26970;49.900;10.774;2023-03-19T01:58:58;9.68;;;4.75;;
39502;SDS011;26970;49.900;10.774;2023-03-19T02:01:28;10.98;;;4.93;;
39502;SDS011;26970;49.900;10.774;2023-03-19T02:03:58;11.30;;;5.20;;
39502;SDS011;26970;49.900;10.774;2023-03-19T02:06:24;7.75;;;5.00;;
39502;SDS011;26970;49.900;10.774;2023-03-19T02:08:52;8.93;;;5.03;;
39502;SDS011;26970;49.900;10.774;2023-03-19T02:11:19;8.43;;;5.30;;
39502;SDS011;26970;49.900;10.774;2023-03-19T02:13:44;10.82;;;6.13;;
39502;SDS011;26970;49.900;10.774;2023-03-19T02:16:11;9.30;;;5.43;;
39502;SDS011;26970;49.900;10.774;2023-03-19T02:18:37;9.82;;;5.63;;
39502;SDS011;26970;49.900;10.774;2023-03-19T02:21:16;10.25;;;5.50;;
39502;SDS011;26970;49.900;10.774;2023-03-19T02:26:27;9.23;;;5.15;;
39502;SDS011;26970;49.900;10.774;2023-03-19T02:28:54;10.38;;;5.40;;
39502;SDS011;26970;49.900;10.774;2023-03-19T02:31:20;12.63;;;5.15;;
39502;SDS011;26970;49.900;10.774;2023-03-19T02:33:56;10.25;;;5.10;;
39502;SDS011;26970;49.900;10.774;2023-03-19T02:37:14;8.95;;;5.43;;
39502;SDS011;26970;49.900;10.774;2023-03-19T02:39:48;9.18;;;4.95;;
39502;SDS011;26970;49.900;10.774;2023-03-19T02:42:18;11.75;;;5.13;;
39502;SDS011;26970;49.900;10.774;2023-03-19T02:44:46;8.35;;;5.47;;
39502;SDS011;26970;49.900;10.774;2023-03-19T02:47:12;9.25;;;5.28;;
39502;SDS011;26970;49.900;10.774;2023-03-19T02:49:38;8.43;;;4.95;;
39502;SDS011;26970;49.900;10.774;2023-03-19T02:52:03;9.32;;;4.70;;
39502;SDS011;26970;49.900;10.774;2023-03-19T02:54:29;7.75;;;4.53;;
39502;SDS011;26970;49.900;10.774;2023-03-19T02:56:55;9.88;;;5.13;;
39502;SDS011;26970;49.900;10.774;2023-03-19T02:59:20;12.80;;;4.90;;
39502;SDS011;26970;49.900;10.774;2023-03-19T03:01:46;9.63;;;5.00;;
39502;SDS011;26970;49.900;10.774;2023-03-19T03:04:12;9.95;;;5.22;;
39502;SDS011;26970;49.900;10.774;2023-03-19T03:06:40;9.25;;;4.97;;
39502;SDS011;26970;49.900;10.774;2023-03-19T03:09:06;7.07;;;4.70;;
39502;SDS011;26970;49.900;10.774;2023-03-19T03:11:32;11.23;;;5.43;;
39502;SDS011;26970;49.900;10.774;2023-03-19T03:13:57;11.00;;;4.63;;
39502;SDS011;26970;49.900;10.774;2023-03-19T03:16:23;9.50;;;5.20;;
39502;SDS011;26970;49.900;10.774;2023-03-19T03:18:49;9.13;;;5.18;;
39502;SDS011;26970;49.900;10.774;2023-03-19T03:21:15;13.38;;;5.28;;
39502;SDS011;26970;49.900;10.774;2023-03-19T03:23:43;10.23;;;4.65;;
39502;SDS011;26970;49.900;10.774;2023-03-19T03:26:09;10.77;;;5.68;;
39502;SDS011;26970;49.900;10.774;2023-03-19T03:28:35;11.50;;;5.90;;
39502;SDS011;26970;49.900;10.774;2023-03-19T03:31:01;10.00;;;5.70;;
39502;SDS011;26970;49.900;10.774;2023-03-19T03:33:27;13.45;;;5.63;;
39502;SDS011;26970;49.900;10.774;2023-03-19T03:35:53;7.63;;;4.93;;
39502;SDS011;26970;49.900;10.774;2023-03-19T03:38:19;11.63;;;5.45;;
39502;SDS011;26970;49.900;10.774;2023-03-19T03:40:49;10.52;;;5.00;;
39502;SDS011;26970;49.900;10.774;2023-03-19T03:43:16;8.90;;;5.32;;
39502;SDS011;26970;49.900;10.774;2023-03-19T03:45:42;10.65;;;5.60;;
39502;SDS011;26970;49.900;10.774;2023-03-19T03:48:08;11.25;;;5.70;;
39502;SDS011;26970;49.900;10.774;2023-03-19T03:50:34;8.02;;;4.93;;
39502;SDS011;26970;49.900;10.774;2023-03-19T03:53:00;8.85;;;5.30;;
39502;SDS011;26970;49.900;10.774;2023-03-19T03:55:26;10.20;;;5.47;;
39502;SDS011;26970;49.900;10.774;2023-03-19T03:57:52;10.70;;;5.60;;
39502;SDS011;26970;49.900;10.774;2023-03-19T04:00:18;9.07;;;5.07;;
39502;SDS011;26970;49.900;10.774;2023-03-19T04:02:43;9.07;;;5.03;;
39502;SDS011;26970;49.900;10.774;2023-03-19T04:05:09;8.43;;;4.93;;
39502;SDS011;26970;49.900;10.774;2023-03-19T04:07:36;12.95;;;5.60;;
39502;SDS011;26970;49.900;10.774;2023-03-19T04:10:02;13.48;;;5.63;;
39502;SDS011;26970;49.900;10.774;2023-03-19T04:12:28;10.90;;;6.07;;
39502;SDS011;26970;49.900;10.774;2023-03-19T04:14:54;9.88;;;5.32;;
39502;SDS011;26970;49.900;10.774;2023-03-19T04:17:20;10.18;;;5.57;;
39502;SDS011;26970;49.900;10.774;2023-03-19T04:19:46;8.35;;;4.90;;
39502;SDS011;26970;49.900;10.774;2023-03-19T04:22:11;9.15;;;4.63;;
39502;SDS011;26970;49.900;10.774;2023-03-19T04:24:38;13.60;;;5.28;;
39502;SDS011;26970;49.900;10.774;2023-03-19T04:27:03;8.63;;;4.97;;
39502;SDS011;26970;49.900;10.774;2023-03-19T04:29:29;10.73;;;4.97;;
39502;SDS011;26970;49.900;10.774;2023-03-19T04:31:54;8.85;;;4.50;;
39502;SDS011;26970;49.900;10.774;2023-03-19T04:34:20;10.52;;;4.97;;
39502;SDS011;26970;49.900;10.774;2023-03-19T04:36:46;13.63;;;5.15;;
39502;SDS011;26970;49.900;10.774;2023-03-19T04:39:12;8.13;;;4.47;;
39502;SDS011;26970;49.900;10.774;2023-03-19T04:41:38;7.60;;;4.28;;
39502;SDS011;26970;49.900;10.774;2023-03-19T04:44:04;10.25;;;4.88;;
39502;SDS011;26970;49.900;10.774;2023-03-19T04:46:29;7.90;;;4.95;;
39502;SDS011;26970;49.900;10.774;2023-03-19T04:48:55;8.40;;;4.72;;
39502;SDS011;26970;49.900;10.774;2023-03-19T04:51:21;9.05;;;5.68;;
39502;SDS011;26970;49.900;10.774;2023-03-19T04:53:46;10.32;;;5.45;;
39502;SDS011;26970;49.900;10.774;2023-03-19T04:56:13;12.27;;;5.97;;
39502;SDS011;26970;49.900;10.774;2023-03-19T04:58:42;11.65;;;6.10;;
39502;SDS011;26970;49.900;10.774;2023-03-19T05:01:07;11.52;;;6.20;;
39502;SDS011;26970;49.900;10.774;2023-03-19T05:03:33;12.55;;;6.00;;
39502;SDS011;26970;49.900;10.774;2023-03-19T05:05:59;9.23;;;5.63;;
39502;SDS011;26970;49.900;10.774;2023-03-19T05:08:24;10.65;;;5.00;;
39502;SDS011;26970;49.900;10.774;2023-03-19T05:10:50;9.57;;;4.70;;
39502;SDS011;26970;49.900;10.774;2023-03-19T05:13:16;9.60;;;4.80;;
39502;SDS011;26970;49.900;10.774;2023-03-19T05:15:42;9.85;;;5.18;;
39502;SDS011;26970;49.900;10.774;2023-03-19T05:18:09;11.65;;;5.68;;
39502;SDS011;26970;49.900;10.774;2023-03-19T05:20:35;12.20;;;5.80;;
39502;SDS011;26970;49.900;10.774;2023-03-19T05:23:01;9.68;;;5.53;;
39502;SDS011;26970;49.900;10.774;2023-03-19T05:25:27;8.38;;;5.10;;
39502;SDS011;26970;49.900;10.774;2023-03-19T05:27:54;10.98;;;5.93;;
39502;SDS011;26970;49.900;10.774;2023-03-19T05:30:19;8.73;;;5.40;;
39502;SDS011;26970;49.900;10.774;2023-03-19T05:32:45;8.57;;;5.43;;
39502;SDS011;26970;49.900;10.774;2023-03-19T05:35:11;13.43;;;6.43;;
39502;SDS011;26970;49.900;10.774;2023-03-19T05:37:38;8.98;;;5.38;;
39502;SDS011;26970;49.900;10.774;2023-03-19T05:40:04;11.60;;;6.30;;
39502;SDS011;26970;49.900;10.774;2023-03-19T05:42:30;10.13;;;5.65;;
39502;SDS011;26970;49.900;10.774;2023-03-19T05:44:56;11.45;;;6.10;;
39502;SDS011;26970;49.900;10.774;2023-03-19T05:47:22;9.75;;;5.65;;
39502;SDS011;26970;49.900;10.774;2023-03-19T05:49:47;9.70;;;5.53;;
39502;SDS011;26970;49.900;10.774;2023-03-19T05:52:13;15.50;;;6.53;;
39502;SDS011;26970;49.900;10.774;2023-03-19T05:54:38;13.50;;;6.13;;
39502;SDS011;26970;49.900;10.774;2023-03-19T05:57:05;10.68;;;6.20;;
39502;SDS011;26970;49.900;10.774;2023-03-19T05:59:31;9.35;;;6.00;;
39502;SDS011;26970;49.900;10.774;2023-03-19T06:01:57;11.50;;;6.70;;
39502;SDS011;26970;49.900;10.774;2023-03-19T06:04:23;10.70;;;5.90;;
39502;SDS011;26970;49.900;10.774;2023-03-19T06:06:48;10.68;;;5.93;;
39502;SDS011;26970;49.900;10.774;2023-03-19T06:09:14;10.85;;;6.13;;
39502;SDS011;26970;49.900;10.774;2023-03-19T06:11:40;14.25;;;5.72;;
39502;SDS011;26970;49.900;10.774;2023-03-19T06:14:06;10.48;;;5.18;;
39502;SDS011;26970;49.900;10.774;2023-03-19T06:16:32;8.85;;;5.80;;
39502;SDS011;26970;49.900;10.774;2023-03-19T06:18:58;9.32;;;5.68;;
39502;SDS011;26970;49.900;10.774;2023-03-19T06:21:23;10.80;;;6.15;;
39502;SDS011;26970;49.900;10.774;2023-03-19T06:23:56;10.82;;;5.68;;
39502;SDS011;26970;49.900;10.774;2023-03-19T06:26:23;8.23;;;5.70;;
39502;SDS011;26970;49.900;10.774;2023-03-19T06:28:49;9.88;;;5.20;;
39502;SDS011;26970;49.900;10.774;2023-03-19T06:31:15;10.43;;;6.47;;
39502;SDS011;26970;49.900;10.774;2023-03-19T06:33:41;11.05;;;5.70;;
39502;SDS011;26970;49.900;10.774;2023-03-19T06:36:06;9.85;;;5.90;;
39502;SDS011;26970;49.900;10.774;2023-03-19T06:38:32;10.70;;;6.38;;
39502;SDS011;26970;49.900;10.774;2023-03-19T06:40:59;10.10;;;6.45;;
39502;SDS011;26970;49.900;10.774;2023-03-19T06:43:25;11.35;;;6.38;;
39502;SDS011;26970;49.900;10.774;2023-03-19T06:45:51;11.80;;;6.18;;
39502;SDS011;26970;49.900;10.774;2023-03-19T06:48:16;8.45;;;5.75;;
39502;SDS011;26970;49.900;10.774;2023-03-19T06:50:44;11.02;;;5.70;;
39502;SDS011;26970;49.900;10.774;2023-03-19T06:53:11;7.88;;;5.50;;
39502;SDS011;26970;49.900;10.774;2023-03-19T06:55:37;11.75;;;5.95;;
39502;SDS011;26970;49.900;10.774;2023-03-19T06:58:03;10.43;;;5.32;;
39502;SDS011;26970;49.900;10.774;2023-03-19T07:00:29;11.55;;;5.10;;
39502;SDS011;26970;49.900;10.774;2023-03-19T07:02:55;7.82;;;4.95;;
39502;SDS011;26970;49.900;10.774;2023-03-19T07:05:21;10.55;;;4.97;;
39502;SDS011;26970;49.900;10.774;2023-03-19T07:07:46;9.60;;;4.57;;
39502;SDS011;26970;49.900;10.774;2023-03-19T07:10:12;11.93;;;4.90;;
39502;SDS011;26970;49.900;10.774;2023-03-19T07:12:37;9.70;;;4.47;;
39502;SDS011;26970;49.900;10.774;2023-03-19T07:15:03;9.95;;;4.20;;
39502;SDS011;26970;49.900;10.774;2023-03-19T07:17:29;9.90;;;4.80;;
39502;SDS011;26970;49.900;10.774;2023-03-19T07:19:55;10.07;;;5.10;;
39502;SDS011;26970;49.900;10.774;2023-03-19T07:22:21;11.73;;;4.32;;
39502;SDS011;26970;49.900;10.774;2023-03-19T07:24:46;7.45;;;4.00;;
39502;SDS011;26970;49.900;10.774;2023-03-19T07:27:12;7.55;;;4.00;;
39502;SDS011;26970;49.900;10.774;2023-03-19T07:29:38;7.55;;;3.35;;
39502;SDS011;26970;49.900;10.774;2023-03-19T07:32:03;9.25;;;4.43;;
39502;SDS011;26970;49.900;10.774;2023-03-19T07:34:29;10.57;;;4.03;;
39502;SDS011;26970;49.900;10.774;2023-03-19T07:36:55;8.82;;;3.90;;
39502;SDS011;26970;49.900;10.774;2023-03-19T07:39:21;5.93;;;3.28;;
39502;SDS011;26970;49.900;10.774;2023-03-19T07:41:47;11.52;;;3.28;;
39502;SDS011;26970;49.900;10.774;2023-03-19T07:44:13;6.10;;;3.53;;
39502;SDS011;26970;49.900;10.774;2023-03-19T07:46:39;7.53;;;3.25;;
39502;SDS011;26970;49.900;10.774;2023-03-19T07:49:05;9.10;;;3.38;;
39502;SDS011;26970;49.900;10.774;2023-03-19T07:51:31;7.25;;;3.63;;
39502;SDS011;26970;49.900;10.774;2023-03-19T07:53:57;7.97;;;3.60;;
39502;SDS011;26970;49.900;10.774;2023-03-19T07:56:23;9.88;;;3.80;;
39502;SDS011;26970;49.900;10.774;2023-03-19T07:58:49;8.82;;;4.28;;
39502;SDS011;26970;49.900;10.774;2023-03-19T08:01:15;8.25;;;3.33;;
39502;SDS011;26970;49.900;10.774;2023-03-19T08:03:41;8.48;;;4.13;;
39502;SDS011;26970;49.900;10.774;2023-03-19T08:06:07;5.35;;;3.63;;
39502;SDS011;26970;49.900;10.774;2023-03-19T08:08:32;6.75;;;4.35;;
39502;SDS011;26970;49.900;10.774;2023-03-19T08:10:59;7.47;;;3.42;;
39502;SDS011;26970;49.900;10.774;2023-03-19T08:13:25;6.75;;;4.07;;
39502;SDS011;26970;49.900;10.774;2023-03-19T08:15:51;9.57;;;3.90;;
39502;SDS011;26970;49.900;10.774;2023-03-19T08:18:17;10.98;;;4.15;;
39502;SDS011;26970;49.900;10.774;2023-03-19T08:20:44;5.85;;;3.72;;
39502;SDS011;26970;49.900;10.774;2023-03-19T08:23:11;8.23;;;4.00;;
39502;SDS011;26970;49.900;10.774;2023-03-19T08:25:37;8.52;;;3.58;;
39502;SDS011;26970;49.900;10.774;2023-03-19T08:28:03;7.03;;;4.43;;
39502;SDS011;26970;49.900;10.774;2023-03-19T08:30:29;9.27;;;4.63;;
39502;SDS011;26970;49.900;10.774;2023-03-19T08:32:55;7.32;;;4.43;;
39502;SDS011;26970;49.900;10.774;2023-03-19T08:35:21;8.75;;;4.25;;
39502;SDS011;26970;49.900;10.774;2023-03-19T08:37:47;8.05;;;3.88;;
39502;SDS011;26970;49.900;10.774;2023-03-19T08:40:12;6.55;;;3.72;;
39502;SDS011;26970;49.900;10.774;2023-03-19T08:42:38;9.18;;;4.03;;
39502;SDS011;26970;49.900;10.774;2023-03-19T08:45:06;7.22;;;3.45;;
39502;SDS011;26970;49.900;10.774;2023-03-19T08:47:33;8.63;;;3.50;;
39502;SDS011;26970;49.900;10.774;2023-03-19T08:49:59;4.97;;;3.25;;
39502;SDS011;26970;49.900;10.774;2023-03-19T08:52:24;5.25;;;3.33;;
39502;SDS011;26970;49.900;10.774;2023-03-19T08:54:50;5.68;;;3.25;;
39502;SDS011;26970;49.900;10.774;2023-03-19T08:57:16;4.85;;;3.20;;
39502;SDS011;26970;49.900;10.774;2023-03-19T08:59:41;9.40;;;3.60;;
39502;SDS011;26970;49.900;10.774;2023-03-19T09:02:08;9.18;;;3.70;;
39502;SDS011;26970;49.900;10.774;2023-03-19T09:04:35;6.30;;;3.22;;
39502;SDS011;26970;49.900;10.774;2023-03-19T09:07:03;6.40;;;3.70;;
39502;SDS011;26970;49.900;10.774;2023-03-19T09:09:28;12.60;;;6.88;;
39502;SDS011;26970;49.900;10.774;2023-03-19T09:11:54;45.85;;;22.77;;
39502;SDS011;26970;49.900;10.774;2023-03-19T09:14:19;23.27;;;10.45;;
39502;SDS011;26970;49.900;10.774;2023-03-19T09:16:46;13.30;;;6.70;;
39502;SDS011;26970;49.900;10.774;2023-03-19T09:19:12;13.75;;;7.50;;
39502;SDS011;26970;49.900;10.774;2023-03-19T09:21:38;22.15;;;13.38;;
39502;SDS011;26970;49.900;10.774;2023-03-19T09:24:03;9.32;;;6.88;;
39502;SDS011;26970;49.900;10.774;2023-03-19T09:26:29;9.85;;;4.47;;
39502;SDS011;26970;49.900;10.774;2023-03-19T09:28:55;9.88;;;3.50;;
39502;SDS011;26970;49.900;10.774;2023-03-19T09:31:21;4.95;;;3.60;;
39502;SDS011;26970;49.900;10.774;2023-03-19T09:33:47;6.07;;;3.60;;
39502;SDS011;26970;49.900;10.774;2023-03-19T09:36:13;4.45;;;2.97;;
39502;SDS011;26970;49.900;10.774;2023-03-19T09:38:38;5.72;;;3.30;;
39502;SDS011;26970;49.900;10.774;2023-03-19T09:41:16;5.80;;;3.30;;
39502;SDS011;26970;49.900;10.774;2023-03-19T09:44:03;7.65;;;2.90;;
39502;SDS011;26970;49.900;10.774;2023-03-19T09:49:46;6.50;;;3.03;;
39502;SDS011;26970;49.900;10.774;2023-03-19T09:52:33;8.88;;;3.42;;
39502;SDS011;26970;49.900;10.774;2023-03-19T09:55:29;6.30;;;4.10;;
39502;SDS011;26970;49.900;10.774;2023-03-19T09:57:52;7.03;;;3.70;;
39502;SDS011;26970;49.900;10.774;2023-03-19T10:00:26;5.47;;;3.42;;
39502;SDS011;26970;49.900;10.774;2023-03-19T10:16:18;6.13;;;3.42;;
39502;SDS011;26970;49.900;10.774;2023-03-19T10:18:47;5.55;;;3.38;;
39502;SDS011;26970;49.900;10.774;2023-03-19T10:21:38;5.45;;;2.95;;
39502;SDS011;26970;49.900;10.774;2023-03-19T10:24:14;5.97;;;3.13;;
39502;SDS011;26970;49.900;10.774;2023-03-19T10:26:55;5.07;;;3.00;;
39502;SDS011;26970;49.900;10.774;2023-03-19T10:29:24;5.80;;;3.30;;
39502;SDS011;26970;49.900;10.774;2023-03-19T10:34:35;4.72;;;3.35;;
39502;SDS011;26970;49.900;10.774;2023-03-19T10:37:03;7.45;;;3.47;;
39502;SDS011;26970;49.900;10.774;2023-03-19T10:39:32;10.95;;;4.00;;
39502;SDS011;26970;49.900;10.774;2023-03-19T10:47:15;5.75;;;3.70;;
39502;SDS011;26970;49.900;10.774;2023-03-19T10:49:43;6.30;;;4.18;;
39502;SDS011;26970;49.900;10.774;2023-03-19T10:52:15;6.18;;;4.20;;
39502;SDS011;26970;49.900;10.774;2023-03-19T10:54:48;6.63;;;4.20;;
39502;SDS011;26970;49.900;10.774;2023-03-19T10:57:27;7.03;;;4.65;;
39502;SDS011;26970;49.900;10.774;2023-03-19T10:59:55;7.00;;;4.53;;
39502;SDS011;26970;49.900;10.774;2023-03-19T11:02:29;6.93;;;4.60;;
39502;SDS011;26970;49.900;10.774;2023-03-19T11:07:37;8.10;;;4.55;;
39502;SDS011;26970;49.900;10.774;2023-03-19T11:10:03;8.93;;;4.90;;
39502;SDS011;26970;49.900;10.774;2023-03-19T11:12:36;6.50;;;4.43;;
39502;SDS011;26970;49.900;10.774;2023-03-19T11:15:03;5.80;;;3.95;;
39502;SDS011;26970;49.900;10.774;2023-03-19T11:20:27;7.65;;;4.88;;
39502;SDS011;26970;49.900;10.774;2023-03-19T11:22:58;7.97;;;4.97;;
39502;SDS011;26970;49.900;10.774;2023-03-19T11:28:07;7.03;;;5.38;;
39502;SDS011;26970;49.900;10.774;2023-03-19T11:30:54;7.35;;;4.80;;
39502;SDS011;26970;49.900;10.774;2023-03-19T11:47:12;9.65;;;3.88;;
39502;SDS011;26970;49.900;10.774;2023-03-19T11:49:54;8.13;;;4.70;;
39502;SDS011;26970;49.900;10.774;2023-03-19T11:52:50;6.30;;;3.38;;
39502;SDS011;26970;49.900;10.774;2023-03-19T12:00:50;6.30;;;3.72;;
39502;SDS011;26970;49.900;10.774;2023-03-19T12:06:30;6.03;;;3.22;;
39502;SDS011;26970;49.900;10.774;2023-03-19T12:11:51;4.95;;;3.00;;
39502;SDS011;26970;49.900;10.774;2023-03-19T12:14:25;5.60;;;3.55;;
39502;SDS011;26970;49.900;10.774;2023-03-19T12:19:48;6.00;;;3.20;;
39502;SDS011;26970;49.900;10.774;2023-03-19T12:22:44;4.45;;;2.92;;
39502;SDS011;26970;49.900;10.774;2023-03-19T12:25:29;7.45;;;3.20;;
39502;SDS011;26970;49.900;10.774;2023-03-19T12:33:55;6.82;;;3.30;;
39502;SDS011;26970;49.900;10.774;2023-03-19T12:36:32;5.20;;;3.28;;
39502;SDS011;26970;49.900;10.774;2023-03-19T12:39:05;5.13;;;3.13;;
39502;SDS011;26970;49.900;10.774;2023-03-19T12:41:40;6.57;;;3.00;;
39502;SDS011;26970;49.900;10.774;2023-03-19T12:44:18;7.13;;;2.70;;
39502;SDS011;26970;49.900;10.774;2023-03-19T12:47:06;4.55;;;2.60;;
39502;SDS011;26970;49.900;10.774;2023-03-19T12:52:24;3.65;;;2.50;;
39502;SDS011;26970;49.900;10.774;2023-03-19T13:00:59;4.70;;;2.63;;
39502;SDS011;26970;49.900;10.774;2023-03-19T13:06:22;4.90;;;2.72;;
39502;SDS011;26970;49.900;10.774;2023-03-19T13:09:04;5.20;;;2.40;;
39502;SDS011;26970;49.900;10.774;2023-03-19T13:14:37;5.18;;;2.10;;
39502;SDS011;26970;49.900;10.774;2023-03-19T13:20:33;6.05;;;2.50;;
39502;SDS011;26970;49.900;10.774;2023-03-19T13:23:08;5.97;;;2.60;;
39502;SDS011;26970;49.900;10.774;2023-03-19T13:25:38;5.57;;;2.40;;
39502;SDS011;26970;49.900;10.774;2023-03-19T13:28:08;4.43;;;2.47;;
39502;SDS011;26970;49.900;10.774;2023-03-19T13:30:35;5.38;;;2.70;;
39502;SDS011;26970;49.900;10.774;2023-03-19T13:33:11;5.40;;;2.50;;
39502;SDS011;26970;49.900;10.774;2023-03-19T13:35:50;4.53;;;2.22;;
39502;SDS011;26970;49.900;10.774;2023-03-19T13:38:21;5.03;;;2.60;;
39502;SDS011;26970;49.900;10.774;2023-03-19T13:40:54;6.07;;;2.53;;
39502;SDS011;26970;49.900;10.774;2023-03-19T13:45:51;3.50;;;2.40;;
39502;SDS011;26970;49.900;10.774;2023-03-19T13:48:22;4.95;;;2.60;;
39502;SDS011;26970;49.900;10.774;2023-03-19T13:50:59;4.97;;;2.78;;
39502;SDS011;26970;49.900;10.774;2023-03-19T13:55:53;4.97;;;2.75;;
39502;SDS011;26970;49.900;10.774;2023-03-19T13:58:28;5.50;;;2.53;;
39502;SDS011;26970;49.900;10.774;2023-03-19T14:04:13;8.13;;;2.40;;
39502;SDS011;26970;49.900;10.774;2023-03-19T14:06:50;5.40;;;2.30;;
39502;SDS011;26970;49.900;10.774;2023-03-19T14:12:09;4.50;;;2.63;;
39502;SDS011;26970;49.900;10.774;2023-03-19T14:14:45;4.80;;;2.92;;
39502;SDS011;26970;49.900;10.774;2023-03-19T14:19:59;7.07;;;2.67;;
39502;SDS011;26970;49.900;10.774;2023-03-19T14:25:24;5.22;;;2.60;;
39502;SDS011;26970;49.900;10.774;2023-03-19T14:27:58;5.25;;;2.80;;
39502;SDS011;26970;49.900;10.774;2023-03-19T14:30:30;4.65;;;2.42;;
39502;SDS011;26970;49.900;10.774;2023-03-19T14:33:03;7.07;;;2.47;;
39502;SDS011;26970;49.900;10.774;2023-03-19T14:35:33;8.53;;;2.73;;
39502;SDS011;26970;49.900;10.774;2023-03-19T14:38:03;4.65;;;2.90;;
39502;SDS011;26970;49.900;10.774;2023-03-19T14:40:45;5.05;;;2.80;;
39502;SDS011;26970;49.900;10.774;2023-03-19T14:43:22;4.63;;;2.63;;
39502;SDS011;26970;49.900;10.774;2023-03-19T14:45:59;3.97;;;2.47;;
39502;SDS011;26970;49.900;10.774;2023-03-19T14:54:03;6.45;;;2.60;;
39502;SDS011;26970;49.900;10.774;2023-03-19T14:56:35;5.10;;;3.58;;
39502;SDS011;26970;49.900;10.774;2023-03-19T14:59:01;4.60;;;2.60;;
39502;SDS011;26970;49.900;10.774;2023-03-19T15:01:30;4.90;;;2.55;;
39502;SDS011;26970;49.900;10.774;2023-03-19T15:03:59;4.63;;;2.42;;
39502;SDS011;26970;49.900;10.774;2023-03-19T15:06:32;4.47;;;2.63;;
39502;SDS011;26970;49.900;10.774;2023-03-19T15:09:00;6.03;;;2.58;;
39502;SDS011;26970;49.900;10.774;2023-03-19T15:14:18;6.18;;;2.53;;
39502;SDS011;26970;49.900;10.774;2023-03-19T15:17:05;7.97;;;2.95;;
39502;SDS011;26970;49.900;10.774;2023-03-19T15:19:41;5.72;;;2.28;;
39502;SDS011;26970;49.900;10.774;2023-03-19T15:24:37;5.22;;;2.53;;
39502;SDS011;26970;49.900;10.774;2023-03-19T15:27:14;5.20;;;2.40;;
39502;SDS011;26970;49.900;10.774;2023-03-19T15:29:44;8.27;;;2.73;;
39502;SDS011;26970;49.900;10.774;2023-03-19T15:32:09;4.47;;;2.15;;
39502;SDS011;26970;49.900;10.774;2023-03-19T15:34:35;4.22;;;2.22;;
39502;SDS011;26970;49.900;10.774;2023-03-19T15:37:12;5.97;;;2.60;;
39502;SDS011;26970;49.900;10.774;2023-03-19T15:39:47;6.72;;;2.25;;
39502;SDS011;26970;49.900;10.774;2023-03-19T15:42:17;4.57;;;2.60;;
39502;SDS011;26970;49.900;10.774;2023-03-19T15:44:51;5.32;;;2.53;;
39502;SDS011;26970;49.900;10.774;2023-03-19T15:47:27;5.28;;;2.95;;
39502;SDS011;26970;49.900;10.774;2023-03-19T15:52:31;7.15;;;2.80;;
39502;SDS011;26970;49.900;10.774;2023-03-19T15:55:00;5.70;;;2.60;;
39502;SDS011;26970;49.900;10.774;2023-03-19T15:57:26;4.65;;;2.40;;
39502;SDS011;26970;49.900;10.774;2023-03-19T15:59:53;5.47;;;3.08;;
39502;SDS011;26970;49.900;10.774;2023-03-19T16:02:32;5.45;;;2.38;;
39502;SDS011;26970;49.900;10.774;2023-03-19T16:04:59;4.63;;;2.30;;
39502;SDS011;26970;49.900;10.774;2023-03-19T16:09:54;4.25;;;2.50;;
39502;SDS011;26970;49.900;10.774;2023-03-19T16:12:37;3.72;;;2.28;;
39502;SDS011;26970;49.900;10.774;2023-03-19T16:17:53;4.30;;;2.40;;
39502;SDS011;26970;49.900;10.774;2023-03-19T16:20:20;4.75;;;2.53;;
39502;SDS011;26970;49.900;10.774;2023-03-19T16:22:49;4.25;;;2.40;;
39502;SDS011;26970;49.900;10.774;2023-03-19T16:25:18;4.30;;;2.58;;
39502;SDS011;26970;49.900;10.774;2023-03-19T16:27:44;5.50;;;2.50;;
39502;SDS011;26970;49.900;10.774;2023-03-19T16:30:15;4.75;;;2.53;;
39502;SDS011;26970;49.900;10.774;2023-03-19T16:32:45;4.18;;;2.42;;
39502;SDS011;26970;49.900;10.774;2023-03-19T16:35:22;6.28;;;2.92;;
39502;SDS011;26970;49.900;10.774;2023-03-19T16:37:49;4.30;;;2.72;;
39502;SDS011;26970;49.900;10.774;2023-03-19T16:42:46;5.40;;;2.72;;
39502;SDS011;26970;49.900;10.774;2023-03-19T16:47:57;4.88;;;2.50;;